createdAt,value
2017-02-14T00:00:17.196Z,0
2017-02-14T00:01:23.281Z,0
2017-02-14T00:02:28.445Z,0
2017-02-14T00:03:33.525Z,0
2017-02-14T00:04:37.726Z,0
2017-02-14T00:05:42.793Z,0
2017-02-14T00:06:47.004Z,0
2017-02-14T00:07:52.136Z,0
2017-02-14T00:08:58.238Z,0
2017-02-14T00:10:04.329Z,0
2017-02-14T00:11:09.478Z,0
2017-02-14T00:12:14.609Z,0
2017-02-14T00:13:20.706Z,0
2017-02-14T00:14:25.818Z,0
2017-02-14T00:15:31.908Z,0
2017-02-14T00:16:38.005Z,0
2017-02-14T00:17:44.091Z,0
2017-02-14T00:18:50.178Z,0
2017-02-14T00:19:56.274Z,0
2017-02-14T00:21:00.427Z,0
2017-02-14T00:22:06.524Z,0
2017-02-14T00:23:11.649Z,0
2017-02-14T00:24:16.772Z,0
2017-02-14T00:25:21.922Z,0
2017-02-14T00:26:27.981Z,0
2017-02-14T00:27:33.133Z,0
2017-02-14T00:28:37.259Z,0
2017-02-14T00:29:41.380Z,0
2017-02-14T00:30:47.474Z,0
2017-02-14T00:31:52.589Z,0
2017-02-14T00:32:58.716Z,0
2017-02-14T00:34:03.799Z,0
2017-02-14T00:35:09.883Z,0
2017-02-14T00:36:15.022Z,0
2017-02-14T00:37:20.196Z,0
2017-02-14T00:38:26.292Z,0
2017-02-14T00:39:31.413Z,0
2017-02-14T00:40:35.566Z,0
2017-02-14T00:41:41.659Z,0
2017-02-14T00:42:47.751Z,0
2017-02-14T00:43:53.851Z,0
2017-02-14T00:44:59.947Z,0
2017-02-14T00:46:05.067Z,0
2017-02-14T00:47:10.196Z,0
2017-02-14T00:48:13.383Z,0
2017-02-14T00:49:18.504Z,0
2017-02-14T00:50:24.600Z,0
2017-02-14T00:51:30.792Z,0
2017-02-14T00:52:34.933Z,0
2017-02-14T00:53:38.088Z,0
2017-02-14T00:54:43.181Z,0
2017-02-14T00:55:47.297Z,0
2017-02-14T00:56:51.462Z,0
2017-02-14T00:57:57.575Z,0
2017-02-14T00:59:03.646Z,0
2017-02-14T01:00:08.799Z,0
2017-02-14T01:01:14.894Z,0
2017-02-14T01:02:20.985Z,0
2017-02-14T01:03:27.071Z,0
2017-02-14T01:04:31.203Z,0
2017-02-14T01:05:35.362Z,0
2017-02-14T01:06:41.458Z,0
2017-02-14T01:07:46.585Z,0
2017-02-14T01:08:51.699Z,0
2017-02-14T01:09:57.790Z,0
2017-02-14T01:11:02.906Z,0
2017-02-14T01:12:08.020Z,0
2017-02-14T01:13:14.132Z,0
2017-02-14T01:14:18.252Z,0
2017-02-14T01:15:24.334Z,0
2017-02-14T01:16:29.536Z,0
2017-02-14T01:17:33.681Z,0
2017-02-14T01:18:38.799Z,0
2017-02-14T01:19:43.926Z,0
2017-02-14T01:20:50.036Z,0
2017-02-14T01:21:55.167Z,0
2017-02-14T01:22:59.326Z,0
2017-02-14T01:24:04.436Z,0
2017-02-14T01:25:10.525Z,0
2017-02-14T01:26:15.715Z,0
2017-02-14T01:27:19.834Z,0
2017-02-14T01:28:23.961Z,0
2017-02-14T01:29:29.081Z,0
2017-02-14T01:30:35.173Z,0
2017-02-14T01:31:41.263Z,0
2017-02-14T01:32:45.406Z,0
2017-02-14T01:33:50.548Z,0
2017-02-14T01:34:55.679Z,0
2017-02-14T01:36:01.771Z,0
2017-02-14T01:37:07.856Z,0
2017-02-14T01:38:12.994Z,0
2017-02-14T01:39:18.094Z,0
2017-02-14T01:40:24.183Z,0
2017-02-14T01:41:30.271Z,0
2017-02-14T01:42:35.388Z,0
2017-02-14T01:43:40.510Z,0
2017-02-14T01:44:45.721Z,0
2017-02-14T01:45:51.802Z,0
2017-02-14T01:46:55.961Z,0
2017-02-14T01:48:02.044Z,0
2017-02-14T01:49:07.178Z,0
2017-02-14T01:50:12.275Z,0
2017-02-14T01:51:17.405Z,0
2017-02-14T01:52:23.503Z,0
2017-02-14T01:53:29.591Z,0
2017-02-14T01:54:35.683Z,0
2017-02-14T01:55:40.824Z,0
2017-02-14T01:56:45.967Z,0
2017-02-14T01:57:51.107Z,0
2017-02-14T01:58:57.198Z,0
2017-02-14T02:00:02.319Z,0
2017-02-14T02:01:07.444Z,0
2017-02-14T02:02:12.563Z,0
2017-02-14T02:03:17.669Z,0
2017-02-14T02:04:22.784Z,0
2017-02-14T02:05:27.894Z,0
2017-02-14T02:06:33.017Z,0
2017-02-14T02:07:38.201Z,0
2017-02-14T02:08:44.295Z,0
2017-02-14T02:09:48.441Z,0
2017-02-14T02:10:54.536Z,0
2017-02-14T02:11:59.660Z,0
2017-02-14T02:13:05.749Z,0
2017-02-14T02:14:11.843Z,0
2017-02-14T02:15:16.966Z,0
2017-02-14T02:16:22.097Z,0
2017-02-14T02:17:26.257Z,0
2017-02-14T02:18:29.431Z,0
2017-02-14T02:19:35.526Z,0
2017-02-14T02:20:41.625Z,0
2017-02-14T02:21:46.740Z,0
2017-02-14T02:22:52.836Z,0
2017-02-14T02:23:58.938Z,0
2017-02-14T02:25:04.088Z,0
2017-02-14T02:26:10.174Z,0
2017-02-14T02:27:15.275Z,0
2017-02-14T02:28:21.385Z,0
2017-02-14T02:29:26.474Z,0
2017-02-14T02:30:32.581Z,0
2017-02-14T02:31:38.705Z,0
2017-02-14T02:32:42.852Z,0
2017-02-14T02:33:48.998Z,0
2017-02-14T02:34:55.088Z,0
2017-02-14T02:36:00.211Z,0
2017-02-14T02:37:06.297Z,0
2017-02-14T02:38:11.417Z,0
2017-02-14T02:39:14.593Z,0
2017-02-14T02:40:18.738Z,0
2017-02-14T02:41:24.825Z,0
2017-02-14T02:42:30.913Z,0
2017-02-14T02:43:36.042Z,0
2017-02-14T02:44:42.124Z,0
2017-02-14T02:45:48.210Z,0
2017-02-14T02:46:52.363Z,0
2017-02-14T02:47:56.499Z,0
2017-02-14T02:49:01.619Z,0
2017-02-14T02:50:04.781Z,0
2017-02-14T02:51:09.918Z,0
2017-02-14T02:52:16.037Z,0
2017-02-14T02:53:22.129Z,0
2017-02-14T02:54:26.280Z,0
2017-02-14T02:55:30.433Z,0
2017-02-14T02:56:34.591Z,0
2017-02-14T02:57:40.688Z,0
2017-02-14T02:58:46.780Z,0
2017-02-14T02:59:52.888Z,0
2017-02-14T03:00:58.949Z,0
2017-02-14T03:02:05.041Z,0
2017-02-14T03:03:10.136Z,0
2017-02-14T03:04:15.290Z,0
2017-02-14T03:05:19.429Z,0
2017-02-14T03:06:24.525Z,0
2017-02-14T03:07:29.723Z,0
2017-02-14T03:08:33.861Z,0
2017-02-14T03:09:39.949Z,0
2017-02-14T03:10:45.054Z,0
2017-02-14T03:11:48.240Z,0
2017-02-14T03:12:54.341Z,0
2017-02-14T03:14:00.429Z,0
2017-02-14T03:15:06.518Z,0
2017-02-14T03:16:11.642Z,0
2017-02-14T03:17:17.726Z,0
2017-02-14T03:18:22.890Z,0
2017-02-14T03:19:28.962Z,0
2017-02-14T03:20:34.084Z,0
2017-02-14T03:21:40.179Z,0
2017-02-14T03:22:45.291Z,0
2017-02-14T03:23:51.378Z,0
2017-02-14T03:24:57.488Z,0
2017-02-14T03:26:02.589Z,0
2017-02-14T03:27:07.788Z,0
2017-02-14T03:28:13.887Z,0
2017-02-14T03:29:19.009Z,0
2017-02-14T03:30:25.104Z,0
2017-02-14T03:31:30.205Z,0
2017-02-14T03:32:36.305Z,0
2017-02-14T03:33:41.434Z,0
2017-02-14T03:34:47.557Z,0
2017-02-14T03:35:51.765Z,0
2017-02-14T03:36:57.851Z,0
2017-02-14T03:38:04.000Z,0
2017-02-14T03:39:09.139Z,0
2017-02-14T03:40:14.276Z,0
2017-02-14T03:41:19.490Z,0
2017-02-14T03:42:23.637Z,0
2017-02-14T03:43:27.829Z,0
2017-02-14T03:44:32.951Z,0
2017-02-14T03:45:38.132Z,0
2017-02-14T03:46:43.247Z,0
2017-02-14T03:47:47.382Z,0
2017-02-14T03:48:53.470Z,0
2017-02-14T03:49:58.587Z,0
2017-02-14T03:51:04.677Z,0
2017-02-14T03:52:09.804Z,0
2017-02-14T03:53:15.886Z,0
2017-02-14T03:54:21.977Z,0
2017-02-14T03:55:27.109Z,0
2017-02-14T03:56:32.231Z,0
2017-02-14T03:57:37.352Z,0
2017-02-14T03:58:42.499Z,0
2017-02-14T03:59:46.632Z,0
2017-02-14T04:00:52.723Z,0
2017-02-14T04:01:58.866Z,0
2017-02-14T04:03:03.982Z,0
2017-02-14T04:04:10.072Z,0
2017-02-14T04:05:15.190Z,0
2017-02-14T04:06:20.311Z,0
2017-02-14T04:07:26.408Z,0
2017-02-14T04:08:31.493Z,0
2017-02-14T04:09:36.632Z,0
2017-02-14T04:10:42.721Z,0
2017-02-14T04:11:47.879Z,0
2017-02-14T04:12:53.965Z,0
2017-02-14T04:14:00.056Z,0
2017-02-14T04:15:04.189Z,0
2017-02-14T04:16:08.337Z,0
2017-02-14T04:17:13.464Z,0
2017-02-14T04:18:19.550Z,0
2017-02-14T04:19:24.640Z,0
2017-02-14T04:20:30.756Z,0
2017-02-14T04:21:35.873Z,0
2017-02-14T04:22:42.027Z,0
2017-02-14T04:23:47.146Z,0
2017-02-14T04:24:52.277Z,0
2017-02-14T04:25:57.365Z,0
2017-02-14T04:27:03.489Z,0
2017-02-14T04:28:08.609Z,0
2017-02-14T04:29:14.698Z,0
2017-02-14T04:30:20.792Z,0
2017-02-14T04:31:25.903Z,0
2017-02-14T04:32:31.976Z,0
2017-02-14T04:33:37.107Z,0
2017-02-14T04:34:43.203Z,0
2017-02-14T04:35:49.296Z,0
2017-02-14T04:36:54.422Z,0
2017-02-14T04:38:00.515Z,0
2017-02-14T04:39:04.659Z,0
2017-02-14T04:40:10.752Z,0
2017-02-14T04:41:16.850Z,0
2017-02-14T04:42:22.935Z,0
2017-02-14T04:43:27.061Z,0
2017-02-14T04:44:32.180Z,0
2017-02-14T04:45:38.266Z,0
2017-02-14T04:46:43.395Z,0
2017-02-14T04:47:48.497Z,0
2017-02-14T04:48:52.614Z,0
2017-02-14T04:49:58.793Z,0
2017-02-14T04:51:04.887Z,0
2017-02-14T04:52:11.024Z,0
2017-02-14T04:53:15.200Z,0
2017-02-14T04:54:20.329Z,0
2017-02-14T04:55:24.464Z,0
2017-02-14T04:56:30.565Z,0
2017-02-14T04:57:35.693Z,0
2017-02-14T04:58:40.833Z,0
2017-02-14T04:59:45.945Z,0
2017-02-14T05:00:52.036Z,0
2017-02-14T05:01:57.180Z,0
2017-02-14T05:03:03.270Z,0
2017-02-14T05:04:09.359Z,0
2017-02-14T05:05:13.508Z,0
2017-02-14T05:06:19.602Z,0
2017-02-14T05:07:25.709Z,0
2017-02-14T05:08:30.832Z,0
2017-02-14T05:09:35.959Z,0
2017-02-14T05:10:41.074Z,0
2017-02-14T05:11:46.198Z,0
2017-02-14T05:12:50.347Z,0
2017-02-14T05:13:56.446Z,0
2017-02-14T05:15:02.531Z,0
2017-02-14T05:16:08.625Z,0
2017-02-14T05:17:12.782Z,0
2017-02-14T05:18:17.904Z,0
2017-02-14T05:19:23.991Z,0
2017-02-14T05:20:29.118Z,0
2017-02-14T05:21:35.197Z,0
2017-02-14T05:22:40.290Z,0
2017-02-14T05:23:45.476Z,0
2017-02-14T05:24:51.577Z,0
2017-02-14T05:25:57.677Z,0
2017-02-14T05:27:03.813Z,0
2017-02-14T05:28:09.887Z,0
2017-02-14T05:29:14.002Z,0
2017-02-14T05:30:20.094Z,0
2017-02-14T05:31:26.179Z,0
2017-02-14T05:32:30.329Z,0
2017-02-14T05:33:35.442Z,0
2017-02-14T05:34:40.536Z,0
2017-02-14T05:35:45.631Z,0
2017-02-14T05:36:51.831Z,0
2017-02-14T05:37:57.924Z,0
2017-02-14T05:39:04.015Z,0
2017-02-14T05:40:09.144Z,0
2017-02-14T05:41:14.264Z,0
2017-02-14T05:42:18.426Z,0
2017-02-14T05:43:24.520Z,0
2017-02-14T05:44:27.704Z,0
2017-02-14T05:45:32.821Z,0
2017-02-14T05:46:37.948Z,0
2017-02-14T05:47:43.066Z,0
2017-02-14T05:48:48.198Z,0
2017-02-14T05:49:54.281Z,0
2017-02-14T05:50:59.413Z,0
2017-02-14T05:52:05.512Z,0
2017-02-14T05:53:10.638Z,0
2017-02-14T05:54:16.724Z,0
2017-02-14T05:55:20.880Z,0
2017-02-14T05:56:27.001Z,0
2017-02-14T05:57:33.069Z,0
2017-02-14T05:58:39.161Z,0
2017-02-14T05:59:45.293Z,0
2017-02-14T06:00:51.364Z,0
2017-02-14T06:01:57.447Z,0
2017-02-14T06:03:03.586Z,0
2017-02-14T06:04:09.680Z,0
2017-02-14T06:05:15.773Z,0
2017-02-14T06:06:21.863Z,0
2017-02-14T06:07:26.066Z,0
2017-02-14T06:08:31.190Z,0
2017-02-14T06:09:36.312Z,4
2017-02-14T06:10:41.433Z,0
2017-02-14T06:11:47.513Z,4
2017-02-14T06:12:52.640Z,0
2017-02-14T06:13:58.726Z,4
2017-02-14T06:15:02.885Z,4
2017-02-14T06:16:08.975Z,4
2017-02-14T06:17:14.108Z,4
2017-02-14T06:18:20.213Z,8
2017-02-14T06:19:26.303Z,8
2017-02-14T06:20:31.431Z,8
2017-02-14T06:21:37.523Z,12
2017-02-14T06:22:42.620Z,16
2017-02-14T06:23:48.708Z,16
2017-02-14T06:24:54.812Z,20
2017-02-14T06:26:00.887Z,28
2017-02-14T06:27:06.976Z,32
2017-02-14T06:28:13.071Z,40
2017-02-14T06:29:18.159Z,44
2017-02-14T06:30:23.285Z,52
2017-02-14T06:31:26.445Z,60
2017-02-14T06:32:32.545Z,68
2017-02-14T06:33:37.690Z,80
2017-02-14T06:34:43.770Z,92
2017-02-14T06:35:48.889Z,104
2017-02-14T06:36:55.040Z,120
2017-02-14T06:38:00.137Z,136
2017-02-14T06:39:04.297Z,156
2017-02-14T06:40:10.482Z,172
2017-02-14T06:41:15.609Z,188
2017-02-14T06:42:19.766Z,212
2017-02-14T06:43:24.885Z,232
2017-02-14T06:44:31.009Z,260
2017-02-14T06:45:36.108Z,284
2017-02-14T06:46:42.211Z,308
2017-02-14T06:47:48.304Z,340
2017-02-14T06:48:52.421Z,368
2017-02-14T06:49:58.532Z,396
2017-02-14T06:51:03.648Z,428
2017-02-14T06:52:09.740Z,464
2017-02-14T06:53:15.865Z,496
2017-02-14T06:54:20.985Z,532
2017-02-14T06:55:24.165Z,568
2017-02-14T06:56:29.293Z,608
2017-02-14T06:57:35.377Z,652
2017-02-14T06:58:41.456Z,692
2017-02-14T06:59:47.543Z,736
2017-02-14T07:00:53.629Z,784
2017-02-14T07:01:59.745Z,832
2017-02-14T07:03:05.845Z,884
2017-02-14T07:04:10.009Z,936
2017-02-14T07:05:15.148Z,988
2017-02-14T07:06:21.238Z,996
2017-02-14T07:07:27.334Z,1052
2017-02-14T07:08:33.417Z,1100
2017-02-14T07:09:38.533Z,1152
2017-02-14T07:10:44.676Z,1204
2017-02-14T07:11:48.844Z,1256
2017-02-14T07:12:53.959Z,1312
2017-02-14T07:13:59.081Z,1368
2017-02-14T07:15:03.230Z,1432
2017-02-14T07:16:09.330Z,1496
2017-02-14T07:17:14.477Z,1564
2017-02-14T07:18:19.579Z,1632
2017-02-14T07:19:24.695Z,1716
2017-02-14T07:20:29.786Z,1812
2017-02-14T07:21:33.959Z,1960
2017-02-14T07:22:40.035Z,2200
2017-02-14T07:23:46.133Z,2704
2017-02-14T07:24:51.262Z,3216
2017-02-14T07:25:57.311Z,3624
2017-02-14T07:27:03.412Z,3832
2017-02-14T07:28:09.504Z,3976
2017-02-14T07:29:14.638Z,4112
2017-02-14T07:30:20.719Z,4268
2017-02-14T07:31:25.841Z,4448
2017-02-14T07:32:30.026Z,4540
2017-02-14T07:33:35.145Z,4692
2017-02-14T07:34:40.266Z,4836
2017-02-14T07:35:46.354Z,4988
2017-02-14T07:36:51.530Z,5128
2017-02-14T07:37:55.680Z,5244
2017-02-14T07:39:00.773Z,5396
2017-02-14T07:40:06.871Z,5568
2017-02-14T07:41:11.999Z,5732
2017-02-14T07:42:17.124Z,5820
2017-02-14T07:43:20.317Z,5996
2017-02-14T07:44:23.525Z,6160
2017-02-14T07:45:29.606Z,6268
2017-02-14T07:46:35.698Z,6432
2017-02-14T07:47:39.856Z,6600
2017-02-14T07:48:44.969Z,6764
2017-02-14T07:49:49.088Z,6908
2017-02-14T07:50:55.206Z,7024
2017-02-14T07:52:01.291Z,7224
2017-02-14T07:53:05.454Z,7368
2017-02-14T07:54:10.607Z,7492
2017-02-14T07:55:15.728Z,7672
2017-02-14T07:56:21.830Z,7736
2017-02-14T07:57:25.987Z,7872
2017-02-14T07:58:31.132Z,7884
2017-02-14T07:59:37.205Z,8096
2017-02-14T08:00:42.323Z,8268
2017-02-14T08:01:48.425Z,8472
2017-02-14T08:02:51.621Z,8544
2017-02-14T08:03:56.722Z,8700
2017-02-14T08:05:02.828Z,8904
2017-02-14T08:06:08.918Z,9072
2017-02-14T08:07:14.050Z,9176
2017-02-14T08:08:19.201Z,9268
2017-02-14T08:09:25.280Z,9388
2017-02-14T08:10:29.445Z,9492
2017-02-14T08:11:35.528Z,9604
2017-02-14T08:12:38.700Z,9732
2017-02-14T08:13:44.798Z,9852
2017-02-14T08:14:49.937Z,10048
2017-02-14T08:15:55.065Z,10100
2017-02-14T08:17:01.161Z,10148
2017-02-14T08:18:06.289Z,10324
2017-02-14T08:19:11.544Z,10444
2017-02-14T08:20:15.608Z,10592
2017-02-14T08:21:20.747Z,10792
2017-02-14T08:22:26.938Z,10908
2017-02-14T08:23:31.110Z,11124
2017-02-14T08:24:34.281Z,11256
2017-02-14T08:25:38.444Z,11376
2017-02-14T08:26:43.568Z,11452
2017-02-14T08:27:48.696Z,11512
2017-02-14T08:28:54.802Z,11760
2017-02-14T08:29:57.962Z,12264
2017-02-14T08:31:04.066Z,12716
2017-02-14T08:32:08.199Z,12480
2017-02-14T08:33:13.304Z,11940
2017-02-14T08:34:16.532Z,11924
2017-02-14T08:35:22.635Z,12028
2017-02-14T08:36:28.731Z,12188
2017-02-14T08:37:34.840Z,12220
2017-02-14T08:38:40.946Z,12404
2017-02-14T08:39:45.262Z,12704
2017-02-14T08:40:50.361Z,12848
2017-02-14T08:41:55.491Z,12780
2017-02-14T08:43:01.595Z,12448
2017-02-14T08:44:07.707Z,12264
2017-02-14T08:45:13.808Z,12260
2017-02-14T08:46:19.922Z,12316
2017-02-14T08:47:24.092Z,12380
2017-02-14T08:48:29.228Z,12480
2017-02-14T08:49:35.330Z,12548
2017-02-14T08:50:41.428Z,12568
2017-02-14T08:51:47.698Z,12588
2017-02-14T08:52:51.737Z,12628
2017-02-14T08:53:57.840Z,12636
2017-02-14T08:55:03.945Z,12664
2017-02-14T08:56:09.053Z,12704
2017-02-14T08:57:15.212Z,12760
2017-02-14T08:58:21.312Z,12864
2017-02-14T08:59:26.408Z,12960
2017-02-14T09:00:31.576Z,12936
2017-02-14T09:01:36.697Z,12972
2017-02-14T09:02:40.869Z,13064
2017-02-14T09:03:46.979Z,13180
2017-02-14T09:04:52.138Z,13280
2017-02-14T09:05:58.234Z,13420
2017-02-14T09:07:03.376Z,13480
2017-02-14T09:08:07.572Z,13572
2017-02-14T09:09:13.655Z,13736
2017-02-14T09:10:17.855Z,13868
2017-02-14T09:11:23.940Z,14020
2017-02-14T09:12:29.073Z,14228
2017-02-14T09:13:33.219Z,14564
2017-02-14T09:14:38.356Z,14836
2017-02-14T09:15:42.524Z,15180
2017-02-14T09:16:45.709Z,15808
2017-02-14T09:17:51.806Z,16192
2017-02-14T09:18:58.033Z,16864
2017-02-14T09:20:00.268Z,17824
2017-02-14T09:21:04.430Z,19488
2017-02-14T09:22:10.531Z,20928
2017-02-14T09:23:15.665Z,21792
2017-02-14T09:24:21.814Z,21792
2017-02-14T09:25:26.909Z,22144
2017-02-14T09:26:32.188Z,22432
2017-02-14T09:27:38.297Z,22464
2017-02-14T09:28:43.439Z,22112
2017-02-14T09:29:47.577Z,21984
2017-02-14T09:30:52.713Z,21792
2017-02-14T09:31:57.846Z,21280
2017-02-14T09:33:03.953Z,21184
2017-02-14T09:35:15.203Z,21184
2017-02-14T09:36:21.335Z,21600
2017-02-14T09:37:27.440Z,21152
2017-02-14T09:38:33.635Z,20704
2017-02-14T09:39:38.746Z,20864
2017-02-14T09:40:41.949Z,21152
2017-02-14T09:41:47.158Z,21664
2017-02-14T09:42:53.236Z,22016
2017-02-14T09:43:57.401Z,22400
2017-02-14T09:45:02.534Z,23616
2017-02-14T09:46:08.632Z,25536
2017-02-14T09:47:14.741Z,28544
2017-02-14T09:48:20.855Z,31200
2017-02-14T09:49:25.959Z,32160
2017-02-14T09:50:30.139Z,33856
2017-02-14T09:51:36.259Z,35744
2017-02-14T09:52:42.364Z,36736
2017-02-14T09:53:48.466Z,37472
2017-02-14T09:54:54.598Z,37888
2017-02-14T09:56:00.723Z,38240
2017-02-14T09:57:06.826Z,38624
2017-02-14T09:58:11.960Z,38304
2017-02-14T09:59:18.071Z,37600
2017-02-14T10:00:24.181Z,38208
2017-02-14T10:01:28.351Z,38304
2017-02-14T10:02:34.462Z,38240
2017-02-14T10:03:40.568Z,38432
2017-02-14T10:04:46.671Z,38176
2017-02-14T10:05:52.769Z,38080
2017-02-14T10:06:56.939Z,38496
2017-02-14T10:08:02.084Z,38688
2017-02-14T10:09:08.204Z,39744
2017-02-14T10:10:14.312Z,39584
2017-02-14T10:11:18.474Z,39168
2017-02-14T10:12:23.702Z,39584
2017-02-14T10:13:28.840Z,39872
2017-02-14T10:14:34.951Z,39392
2017-02-14T10:15:40.079Z,38880
2017-02-14T10:16:46.192Z,40096
2017-02-14T10:17:51.338Z,40224
2017-02-14T10:18:57.446Z,42176
2017-02-14T10:20:03.561Z,43584
2017-02-14T10:21:07.709Z,43488
2017-02-14T10:22:12.823Z,40096
2017-02-14T10:23:18.985Z,35008
2017-02-14T10:24:24.106Z,33216
2017-02-14T10:25:30.345Z,31232
2017-02-14T10:26:36.455Z,30304
2017-02-14T10:27:41.590Z,31520
2017-02-14T10:28:47.730Z,33248
2017-02-14T10:29:53.840Z,33888
2017-02-14T10:30:58.990Z,33568
2017-02-14T10:32:05.221Z,34208
2017-02-14T10:33:10.350Z,35264
2017-02-14T10:34:16.454Z,35200
2017-02-14T10:35:21.581Z,35776
2017-02-14T10:36:27.677Z,35648
2017-02-14T10:37:32.808Z,35808
2017-02-14T10:38:37.950Z,35968
2017-02-14T10:39:42.128Z,35712
2017-02-14T10:40:47.293Z,36704
2017-02-14T10:41:52.398Z,37088
2017-02-14T10:42:57.537Z,36640
2017-02-14T10:44:02.708Z,35040
2017-02-14T10:45:06.878Z,34880
2017-02-14T10:46:12.118Z,35872
2017-02-14T10:47:16.259Z,36160
2017-02-14T10:48:21.391Z,36256
2017-02-14T10:49:27.496Z,35904
2017-02-14T10:50:32.633Z,36544
2017-02-14T10:51:37.771Z,36032
2017-02-14T10:52:41.946Z,35136
2017-02-14T10:53:47.131Z,35008
2017-02-14T10:54:52.342Z,40736
2017-02-14T10:55:58.440Z,40192
2017-02-14T10:57:03.588Z,34624
2017-02-14T10:58:08.708Z,33664
2017-02-14T10:59:13.844Z,34240
2017-02-14T11:00:18.988Z,34048
2017-02-14T11:01:25.106Z,32768
2017-02-14T11:02:31.221Z,33696
2017-02-14T11:03:36.361Z,34144
2017-02-14T11:04:40.505Z,36128
2017-02-14T11:05:45.653Z,36960
2017-02-14T11:06:51.810Z,37056
2017-02-14T11:07:57.000Z,28160
2017-02-14T11:09:03.107Z,8436
2017-02-14T11:10:06.281Z,5160
2017-02-14T11:11:12.399Z,4724
2017-02-14T11:12:18.485Z,4692
2017-02-14T11:13:22.137Z,4764
2017-02-14T11:14:28.236Z,4968
2017-02-14T11:15:34.345Z,5116
2017-02-14T11:16:40.451Z,10028
2017-02-14T11:17:45.589Z,31008
2017-02-14T11:18:51.711Z,20864
2017-02-14T11:19:56.860Z,5072
2017-02-14T11:21:01.040Z,4632
2017-02-14T11:22:06.188Z,4436
2017-02-14T11:23:11.326Z,4392
2017-02-14T11:24:14.505Z,4384
2017-02-14T11:25:18.649Z,4368
2017-02-14T11:26:22.810Z,4344
2017-02-14T11:27:27.933Z,4324
2017-02-14T11:28:34.042Z,4264
2017-02-14T11:29:40.227Z,4236
2017-02-14T11:30:44.353Z,4232
2017-02-14T11:31:50.437Z,4240
2017-02-14T11:32:54.599Z,4236
2017-02-14T11:33:59.730Z,4224
2017-02-14T11:35:04.831Z,4228
2017-02-14T11:36:09.000Z,4212
2017-02-14T11:37:14.134Z,4188
2017-02-14T11:38:19.256Z,4156
2017-02-14T11:39:24.387Z,4144
2017-02-14T11:40:30.483Z,4128
2017-02-14T11:41:34.623Z,4100
2017-02-14T11:42:40.722Z,4096
2017-02-14T11:43:46.820Z,4068
2017-02-14T11:44:52.927Z,4048
2017-02-14T11:45:57.081Z,4024
2017-02-14T11:47:02.221Z,3992
2017-02-14T11:48:05.528Z,3984
2017-02-14T11:49:11.609Z,3960
2017-02-14T11:50:17.727Z,3940
2017-02-14T11:51:23.813Z,3940
2017-02-14T11:52:28.947Z,3920
2017-02-14T11:53:35.078Z,3908
2017-02-14T11:54:40.186Z,3892
2017-02-14T11:55:46.294Z,3880
2017-02-14T11:56:52.400Z,3856
2017-02-14T11:57:55.569Z,3864
2017-02-14T11:59:01.669Z,3852
2017-02-14T12:00:07.764Z,3828
2017-02-14T12:01:12.898Z,3800
2017-02-14T12:02:18.997Z,3792
2017-02-14T12:03:25.107Z,3800
2017-02-14T12:04:30.203Z,3796
2017-02-14T12:05:35.332Z,3796
2017-02-14T12:06:41.434Z,3788
2017-02-14T12:07:45.591Z,3768
2017-02-14T12:08:51.675Z,3740
2017-02-14T12:09:56.801Z,3708
2017-02-14T12:11:01.935Z,3704
2017-02-14T12:12:08.054Z,3692
2017-02-14T12:13:13.133Z,3668
2017-02-14T12:14:17.268Z,3652
2017-02-14T12:15:22.443Z,3644
2017-02-14T12:16:28.543Z,3624
2017-02-14T12:17:34.646Z,3620
2017-02-14T12:18:40.740Z,3608
2017-02-14T12:19:46.858Z,3604
2017-02-14T12:20:52.930Z,3596
2017-02-14T12:21:59.028Z,3584
2017-02-14T12:23:04.173Z,3564
2017-02-14T12:24:08.338Z,3552
2017-02-14T12:25:13.435Z,3536
2017-02-14T12:26:19.539Z,3516
2017-02-14T12:27:25.642Z,3508
2017-02-14T12:28:31.902Z,3504
2017-02-14T12:29:36.991Z,3492
2017-02-14T12:30:41.184Z,3472
2017-02-14T12:31:47.281Z,3464
2017-02-14T12:32:51.440Z,3468
2017-02-14T12:33:56.549Z,3464
2017-02-14T12:35:02.650Z,3448
2017-02-14T12:36:07.777Z,3428
2017-02-14T12:37:12.909Z,3416
2017-02-14T12:38:19.014Z,3420
2017-02-14T12:39:25.114Z,3404
2017-02-14T12:40:30.244Z,3396
2017-02-14T12:41:35.382Z,3388
2017-02-14T12:42:41.483Z,3376
2017-02-14T12:43:45.602Z,3376
2017-02-14T12:44:50.733Z,3360
2017-02-14T12:45:55.831Z,3356
2017-02-14T12:46:59.970Z,3356
2017-02-14T12:48:05.115Z,3356
2017-02-14T12:49:10.210Z,3344
2017-02-14T12:50:15.320Z,3328
2017-02-14T12:51:21.414Z,3308
2017-02-14T12:52:26.567Z,3296
2017-02-14T12:53:31.694Z,3268
2017-02-14T12:54:36.831Z,3248
2017-02-14T12:55:42.929Z,3232
2017-02-14T12:56:49.034Z,3200
2017-02-14T12:57:54.144Z,3192
2017-02-14T12:58:59.286Z,3176
2017-02-14T13:00:05.392Z,3152
2017-02-14T13:01:10.531Z,3140
2017-02-14T13:02:16.636Z,3132
2017-02-14T13:03:22.736Z,3124
2017-02-14T13:04:26.897Z,3116
2017-02-14T13:05:32.039Z,3100
2017-02-14T13:06:38.257Z,3076
2017-02-14T13:07:44.361Z,3044
2017-02-14T13:08:50.480Z,3044
2017-02-14T13:09:55.581Z,3036
2017-02-14T13:11:01.670Z,3044
2017-02-14T13:12:07.760Z,3024
2017-02-14T13:13:13.853Z,3000
2017-02-14T13:14:19.965Z,2996
2017-02-14T13:15:24.127Z,2996
2017-02-14T13:16:30.231Z,2980
2017-02-14T13:17:34.403Z,2988
2017-02-14T13:18:40.509Z,2976
2017-02-14T13:19:45.704Z,2968
2017-02-14T13:20:50.832Z,2964
2017-02-14T13:21:54.996Z,2960
2017-02-14T13:23:01.094Z,2948
2017-02-14T13:24:06.230Z,2832
2017-02-14T13:25:10.447Z,2828
2017-02-14T13:26:14.635Z,2812
2017-02-14T13:27:19.831Z,2804
2017-02-14T13:28:25.942Z,2800
2017-02-14T13:29:32.037Z,2796
2017-02-14T13:30:37.229Z,2788
2017-02-14T13:31:41.376Z,2788
2017-02-14T13:32:45.622Z,2772
2017-02-14T13:33:50.725Z,2764
2017-02-14T13:34:55.884Z,2748
2017-02-14T13:36:01.005Z,2744
2017-02-14T13:37:06.176Z,2716
2017-02-14T13:38:10.387Z,2716
2017-02-14T13:39:14.518Z,2708
2017-02-14T13:40:18.677Z,2704
2017-02-14T13:41:24.788Z,2700
2017-02-14T13:42:30.887Z,2704
2017-02-14T13:43:36.019Z,2700
2017-02-14T13:44:42.121Z,2708
2017-02-14T13:45:47.275Z,2704
2017-02-14T13:46:53.378Z,2696
2017-02-14T13:47:58.570Z,2684
2017-02-14T13:49:04.703Z,2672
2017-02-14T13:50:08.879Z,2660
2017-02-14T13:51:14.019Z,2648
2017-02-14T13:52:19.154Z,2644
2017-02-14T13:53:24.286Z,2644
2017-02-14T13:54:28.454Z,2648
2017-02-14T13:55:33.595Z,2636
2017-02-14T13:56:39.707Z,2636
2017-02-14T13:57:44.842Z,2632
2017-02-14T13:58:50.108Z,2628
2017-02-14T13:59:55.232Z,2624
2017-02-14T14:01:00.362Z,2608
2017-02-14T14:02:06.464Z,2612
2017-02-14T14:03:11.563Z,2588
2017-02-14T14:04:17.682Z,2576
2017-02-14T14:05:23.788Z,2576
2017-02-14T14:06:29.911Z,2564
2017-02-14T14:07:36.000Z,2552
2017-02-14T14:08:42.106Z,2548
2017-02-14T14:09:48.216Z,2540
2017-02-14T14:10:53.361Z,2536
2017-02-14T14:11:58.484Z,2532
2017-02-14T14:13:03.621Z,2524
2017-02-14T14:14:09.719Z,2516
2017-02-14T14:15:14.849Z,2508
2017-02-14T14:16:19.046Z,2492
2017-02-14T14:17:25.158Z,2480
2017-02-14T14:18:31.449Z,2476
2017-02-14T14:19:35.665Z,2472
2017-02-14T14:20:41.805Z,2464
2017-02-14T14:21:46.956Z,2456
2017-02-14T14:22:53.093Z,2444
2017-02-14T14:23:59.201Z,2440
2017-02-14T14:25:04.310Z,2424
2017-02-14T14:26:10.437Z,2416
2017-02-14T14:27:15.543Z,2404
2017-02-14T14:28:20.649Z,2392
2017-02-14T14:29:25.817Z,2384
2017-02-14T14:30:29.971Z,2372
2017-02-14T14:31:35.110Z,2360
2017-02-14T14:32:40.308Z,2348
2017-02-14T14:33:44.482Z,2348
2017-02-14T14:34:50.572Z,2336
2017-02-14T14:35:56.713Z,2324
2017-02-14T14:37:02.811Z,2316
2017-02-14T14:38:08.915Z,2300
2017-02-14T14:39:14.051Z,2292
2017-02-14T14:40:20.168Z,2280
2017-02-14T14:41:26.261Z,2276
2017-02-14T14:42:32.362Z,2264
2017-02-14T14:43:38.470Z,2252
2017-02-14T14:44:43.731Z,2240
2017-02-14T14:45:47.823Z,2228
2017-02-14T14:46:54.046Z,2216
2017-02-14T14:48:00.150Z,2212
2017-02-14T14:49:05.303Z,2204
2017-02-14T14:50:10.442Z,2196
2017-02-14T14:51:15.611Z,2184
2017-02-14T14:52:21.699Z,2180
2017-02-14T14:53:27.812Z,2172
2017-02-14T14:54:32.089Z,2164
2017-02-14T14:55:38.215Z,2152
2017-02-14T14:56:43.359Z,2148
2017-02-14T14:57:49.493Z,2132
2017-02-14T14:58:55.612Z,2124
2017-02-14T15:00:01.848Z,2108
2017-02-14T15:01:07.969Z,2100
2017-02-14T15:02:14.066Z,2092
2017-02-14T15:03:19.223Z,2080
2017-02-14T15:04:24.372Z,2068